createdAt,value
2022-09-22T00:01:04.762Z,7.00
2022-09-22T00:03:07.132Z,6.90
2022-09-22T00:05:09.745Z,6.90
2022-09-22T00:07:12.452Z,6.80
2022-09-22T00:09:18.414Z,6.80
2022-09-22T00:11:48.275Z,6.80
2022-09-22T00:13:51.557Z,6.80
2022-09-22T00:15:53.640Z,6.80
2022-09-22T00:17:55.289Z,6.80
2022-09-22T00:19:57.586Z,6.80
2022-09-22T00:21:59.926Z,6.80
2022-09-22T00:24:03.500Z,6.90
2022-09-22T00:26:11.678Z,6.90
2022-09-22T00:28:13.690Z,6.90
2022-09-22T00:30:15.544Z,7.00
2022-09-22T00:32:18.573Z,7.00
2022-09-22T00:34:23.309Z,7.00
2022-09-22T00:36:27.994Z,7.00
2022-09-22T00:38:29.890Z,7.10
2022-09-22T00:40:33.264Z,7.00
2022-09-22T00:42:34.965Z,7.00
2022-09-22T00:44:40.411Z,6.90
2022-09-22T00:46:44.543Z,6.90
2022-09-22T00:48:58.056Z,6.90
2022-09-22T00:51:03.273Z,6.90
2022-09-22T00:53:16.516Z,6.90
2022-09-22T00:55:47.598Z,6.90
2022-09-22T00:57:50.976Z,6.90
2022-09-22T00:59:54.369Z,6.80
2022-09-22T01:01:56.290Z,6.80
2022-09-22T01:03:58.192Z,6.80
2022-09-22T01:06:02.789Z,6.80
2022-09-22T01:08:04.909Z,6.80
2022-09-22T01:10:08.390Z,6.70
2022-09-22T01:12:10.142Z,6.70
2022-09-22T01:14:31.218Z,6.80
2022-09-22T01:16:56.829Z,6.70
2022-09-22T01:19:16.625Z,6.70
2022-09-22T01:21:27.573Z,6.70
2022-09-22T01:23:48.186Z,6.60
2022-09-22T01:26:20.577Z,6.60
2022-09-22T01:28:56.387Z,6.60
2022-09-22T01:31:18.364Z,6.50
2022-09-22T01:33:37.983Z,6.50
2022-09-22T01:35:51.681Z,6.50
2022-09-22T01:37:59.722Z,6.60
2022-09-22T01:40:08.515Z,6.50
2022-09-22T01:42:32.942Z,6.50
2022-09-22T01:44:37.043Z,6.50
2022-09-22T01:46:43.021Z,6.40
2022-09-22T01:48:50.091Z,6.50
2022-09-22T01:50:58.045Z,6.50
2022-09-22T01:53:05.024Z,6.50
2022-09-22T01:55:13.182Z,6.50
2022-09-22T01:57:21.280Z,6.50
2022-09-22T01:59:26.502Z,6.50
2022-09-22T02:01:36.125Z,6.50
2022-09-22T02:03:45.890Z,6.50
2022-09-22T02:05:50.344Z,6.60
2022-09-22T02:07:53.592Z,6.70
2022-09-22T02:10:00.473Z,6.70
2022-09-22T02:12:05.162Z,6.80
2022-09-22T02:14:07.523Z,6.80
2022-09-22T02:16:11.747Z,6.80
2022-09-22T02:18:21.042Z,6.80
2022-09-22T02:20:22.962Z,6.80
2022-09-22T02:22:27.811Z,6.80
2022-09-22T02:24:42.808Z,6.80
2022-09-22T02:26:46.358Z,6.80
2022-09-22T02:28:48.605Z,6.80
2022-09-22T02:31:17.483Z,6.80
2022-09-22T02:33:16.097Z,6.80
2022-09-22T02:35:18.956Z,6.90
2022-09-22T02:37:50.887Z,6.90
2022-09-22T02:40:20.085Z,6.90
2022-09-22T02:42:25.235Z,6.90
2022-09-22T02:44:41.690Z,6.80
2022-09-22T02:46:51.310Z,6.90
2022-09-22T02:49:06.837Z,6.90
2022-09-22T02:51:10.382Z,6.90
2022-09-22T02:53:16.152Z,6.90
2022-09-22T02:55:18.280Z,6.90
2022-09-22T02:57:20.416Z,6.90
2022-09-22T02:59:22.020Z,6.90
2022-09-22T03:01:23.704Z,6.90
2022-09-22T03:03:26.317Z,6.90
2022-09-22T03:05:27.937Z,6.80
2022-09-22T03:07:29.699Z,6.80
2022-09-22T03:09:33.097Z,6.80
2022-09-22T03:11:35.739Z,6.80
2022-09-22T03:13:37.615Z,6.80
2022-09-22T03:15:39.476Z,6.80
2022-09-22T03:17:42.645Z,6.80
2022-09-22T03:19:44.265Z,6.80
2022-09-22T03:21:45.887Z,6.70
2022-09-22T03:23:48.240Z,6.70
2022-09-22T03:25:50.268Z,6.70
2022-09-22T03:27:51.970Z,6.70
2022-09-22T03:29:55.152Z,6.70
2022-09-22T03:31:56.778Z,6.70
2022-09-22T03:33:58.492Z,6.70
2022-09-22T03:36:00.231Z,6.70
2022-09-22T03:38:02.165Z,6.70
2022-09-22T03:40:04.450Z,6.70
2022-09-22T03:42:09.344Z,6.70
2022-09-22T03:44:10.984Z,6.70
2022-09-22T03:46:14.634Z,6.70
2022-09-22T03:48:16.802Z,6.70
2022-09-22T03:50:18.549Z,6.60
2022-09-22T03:52:20.561Z,6.60
2022-09-22T03:54:22.557Z,6.60
2022-09-22T03:56:25.429Z,6.50
2022-09-22T03:58:27.689Z,6.50
2022-09-22T04:00:29.386Z,6.60
2022-09-22T04:02:33.012Z,6.60
2022-09-22T04:04:35.646Z,6.60
2022-09-22T04:06:38.815Z,6.60
2022-09-22T04:08:40.805Z,6.60
2022-09-22T04:10:43.390Z,6.50
2022-09-22T04:12:46.092Z,6.50
2022-09-22T04:14:47.736Z,6.50
2022-09-22T04:16:49.479Z,6.50
2022-09-22T04:18:51.198Z,6.50
2022-09-22T04:20:58.129Z,6.50
2022-09-22T04:23:00.769Z,6.50
2022-09-22T04:25:02.760Z,6.40
2022-09-22T04:27:21.231Z,6.50
2022-09-22T04:29:23.069Z,6.40
2022-09-22T04:31:26.509Z,6.40
2022-09-22T04:33:28.179Z,6.40
2022-09-22T04:35:31.169Z,6.40
2022-09-22T04:37:32.911Z,6.40
2022-09-22T04:39:35.042Z,6.40
2022-09-22T04:41:36.693Z,6.40
2022-09-22T04:43:39.419Z,6.40
2022-09-22T04:45:48.706Z,6.40
2022-09-22T04:47:53.232Z,6.40
2022-09-22T04:49:55.213Z,6.40
2022-09-22T04:51:57.393Z,6.30
2022-09-22T04:53:59.650Z,6.30
2022-09-22T04:56:01.540Z,6.30
2022-09-22T04:58:05.758Z,6.30
2022-09-22T05:00:08.965Z,6.30
2022-09-22T05:02:10.690Z,6.30
2022-09-22T05:04:13.021Z,6.30
2022-09-22T05:06:14.722Z,6.20
2022-09-22T05:08:16.383Z,6.20
2022-09-22T05:10:18.308Z,6.20
2022-09-22T05:12:20.374Z,6.10
2022-09-22T05:14:26.339Z,6.20
2022-09-22T05:16:28.458Z,6.20
2022-09-22T05:18:30.459Z,6.20
2022-09-22T05:20:32.101Z,6.10
2022-09-22T05:22:39.123Z,6.10
2022-09-22T05:24:42.575Z,6.10
2022-09-22T05:26:45.049Z,6.20
2022-09-22T05:28:47.202Z,6.20
2022-09-22T05:30:52.538Z,6.30
2022-09-22T05:32:55.519Z,6.30
2022-09-22T05:34:57.965Z,6.30
2022-09-22T05:36:59.654Z,6.30
2022-09-22T05:39:01.393Z,6.30
2022-09-22T05:41:06.314Z,6.30
2022-09-22T05:43:07.941Z,6.40
2022-09-22T05:45:11.049Z,6.40
2022-09-22T05:47:12.642Z,6.40
2022-09-22T05:49:14.323Z,6.50
2022-09-22T05:51:17.050Z,6.50
2022-09-22T05:53:18.747Z,6.50
2022-09-22T05:55:20.579Z,6.60
2022-09-22T05:57:25.402Z,6.60
2022-09-22T05:59:27.009Z,6.70
2022-09-22T06:01:29.869Z,6.80
2022-09-22T06:03:32.058Z,6.80
2022-09-22T06:05:37.281Z,6.80
2022-09-22T06:07:39.805Z,6.90
2022-09-22T06:09:41.657Z,7.00
2022-09-22T06:11:43.413Z,7.00
2022-09-22T06:13:47.713Z,7.10
2022-09-22T06:15:50.970Z,7.30
2022-09-22T06:17:53.168Z,7.70
2022-09-22T06:19:55.739Z,8.60
2022-09-22T06:21:58.072Z,9.40
2022-09-22T06:24:00.645Z,10.10
2022-09-22T06:26:02.264Z,11.00
2022-09-22T06:28:11.917Z,12.00
2022-09-22T06:30:13.910Z,12.90
2022-09-22T06:32:16.017Z,13.70
2022-09-22T06:34:18.754Z,14.40
2022-09-22T06:36:30.393Z,15.00
2022-09-22T06:38:32.321Z,15.50
2022-09-22T06:40:37.662Z,15.80
2022-09-22T06:42:42.384Z,16.30
2022-09-22T06:44:44.834Z,16.70
2022-09-22T06:46:46.482Z,16.90
2022-09-22T06:48:51.422Z,17.30
2022-09-22T06:50:54.410Z,17.60
2022-09-22T06:53:05.521Z,18.00
2022-09-22T06:55:07.773Z,18.00
2022-09-22T06:57:10.350Z,18.00
2022-09-22T06:59:14.147Z,17.90
2022-09-22T07:01:16.749Z,18.00
2022-09-22T07:03:22.876Z,18.50
2022-09-22T07:05:25.172Z,18.80
2022-09-22T07:07:33.179Z,18.70
2022-09-22T07:09:35.185Z,18.80
2022-09-22T07:11:40.016Z,18.90
2022-09-22T07:13:42.854Z,19.10
2022-09-22T07:15:44.963Z,19.50
2022-09-22T07:17:52.359Z,19.70
2022-09-22T07:19:56.252Z,20.00
2022-09-22T07:21:59.622Z,20.20
2022-09-22T07:24:01.555Z,20.60
2022-09-22T07:26:06.010Z,21.00
2022-09-22T07:28:11.684Z,21.10
2022-09-22T07:30:14.550Z,21.20
2022-09-22T07:32:16.403Z,21.20
2022-09-22T07:34:19.973Z,21.10
2022-09-22T07:36:23.986Z,21.20
2022-09-22T07:38:32.471Z,21.20
2022-09-22T07:40:34.152Z,21.10
2022-09-22T07:42:36.816Z,21.30
2022-09-22T07:44:57.148Z,21.20
2022-09-22T07:46:59.483Z,21.30
2022-09-22T07:49:02.008Z,21.50
2022-09-22T07:51:12.923Z,21.90
2022-09-22T07:53:16.293Z,22.30
2022-09-22T07:55:18.144Z,22.80
2022-09-22T07:57:20.473Z,22.30
2022-09-22T07:59:22.785Z,22.10
2022-09-22T08:01:32.914Z,22.20
2022-09-22T08:03:37.957Z,22.10
2022-09-22T08:05:40.985Z,22.30
2022-09-22T08:07:43.613Z,22.20
2022-09-22T08:09:45.225Z,22.20
2022-09-22T08:11:50.567Z,22.60
2022-09-22T08:13:57.077Z,22.80
2022-09-22T08:16:00.532Z,23.20
2022-09-22T08:18:03.722Z,23.40
2022-09-22T08:20:07.096Z,23.60
2022-09-22T08:22:10.946Z,23.60
2022-09-22T08:24:14.616Z,23.70
2022-09-22T08:26:16.354Z,23.80
2022-09-22T08:28:18.002Z,23.90
2022-09-22T08:30:19.946Z,24.20
2022-09-22T08:32:22.049Z,24.10
2022-09-22T08:34:25.073Z,23.50
2022-09-22T08:36:28.320Z,23.10
2022-09-22T08:38:32.872Z,23.40
2022-09-22T08:40:35.524Z,23.60
2022-09-22T08:42:37.353Z,23.40
2022-09-22T08:45:01.573Z,23.30
2022-09-22T08:47:07.486Z,23.40
2022-09-22T08:49:42.721Z,23.60
2022-09-22T08:51:56.420Z,23.70
2022-09-22T08:54:03.039Z,23.80
2022-09-22T08:56:34.645Z,23.90
2022-09-22T08:58:48.878Z,24.00
2022-09-22T09:01:21.263Z,24.10
2022-09-22T09:03:55.110Z,24.10
2022-09-22T09:06:25.899Z,24.10
2022-09-22T09:08:45.978Z,24.00
2022-09-22T09:10:55.283Z,24.30
2022-09-22T09:13:27.593Z,24.70
2022-09-22T09:15:29.359Z,24.20
2022-09-22T09:17:36.658Z,23.70
2022-09-22T09:19:44.070Z,23.30
2022-09-22T09:21:53.021Z,23.40
2022-09-22T09:26:24.159Z,23.60
2022-09-22T09:28:37.309Z,23.80
2022-09-22T09:30:53.383Z,24.20
2022-09-22T09:33:00.716Z,24.20
2022-09-22T09:37:14.786Z,24.30
2022-09-22T09:39:25.345Z,24.10
2022-09-22T09:41:33.314Z,24.30
2022-09-22T09:43:37.488Z,24.20
2022-09-22T09:46:07.095Z,24.40
2022-09-22T09:48:31.419Z,24.50
2022-09-22T09:50:33.049Z,24.50
2022-09-22T09:52:38.462Z,24.40
2022-09-22T09:54:46.150Z,24.80
2022-09-22T09:57:19.774Z,24.80
2022-09-22T09:59:45.816Z,25.20
2022-09-22T10:01:50.994Z,25.60
2022-09-22T10:03:55.373Z,25.40
2022-09-22T10:06:02.824Z,25.30
2022-09-22T10:08:17.839Z,24.90
2022-09-22T10:10:34.812Z,25.00
2022-09-22T10:12:38.512Z,24.70
2022-09-22T10:14:51.332Z,24.90
2022-09-22T10:16:53.569Z,24.70
2022-09-22T10:19:06.841Z,24.70
2022-09-22T10:21:18.738Z,25.10
2022-09-22T10:23:23.880Z,25.00
2022-09-22T10:25:28.133Z,25.40
2022-09-22T10:27:31.672Z,25.60
2022-09-22T10:29:33.277Z,25.30
2022-09-22T10:31:38.720Z,25.30
2022-09-22T10:33:54.851Z,25.60
2022-09-22T10:36:09.308Z,25.30
2022-09-22T10:38:23.476Z,25.30
2022-09-22T10:40:27.148Z,25.40
2022-09-22T10:42:41.446Z,25.30
2022-09-22T10:44:48.231Z,25.30
2022-09-22T10:46:58.149Z,25.10
2022-09-22T10:49:21.668Z,25.30
2022-09-22T10:51:57.735Z,25.20
2022-09-22T10:54:14.352Z,24.70
2022-09-22T10:56:38.954Z,24.60
2022-09-22T10:59:22.088Z,24.40
2022-09-22T11:01:48.658Z,24.30
2022-09-22T11:04:02.810Z,24.20
2022-09-22T11:07:07.552Z,24.10
2022-09-22T11:10:10.654Z,24.40
2022-09-22T11:12:36.902Z,24.50
2022-09-22T11:14:48.569Z,24.50
2022-09-22T11:16:59.234Z,24.10
2022-09-22T11:19:31.666Z,24.00
2022-09-22T11:21:52.742Z,23.50
2022-09-22T11:24:31.890Z,23.50
2022-09-22T11:26:48.066Z,23.50
2022-09-22T11:28:57.406Z,22.80
2022-09-22T11:30:59.820Z,22.30
2022-09-22T11:33:26.758Z,21.60
2022-09-22T11:36:06.529Z,20.80
2022-09-22T11:38:42.162Z,20.80
2022-09-22T11:41:01.967Z,20.90
2022-09-22T11:44:01.402Z,20.80
2022-09-22T11:46:15.358Z,20.60
2022-09-22T11:48:29.932Z,20.60
2022-09-22T11:50:49.623Z,20.70
2022-09-22T11:53:26.086Z,21.00
2022-09-22T11:55:34.449Z,21.20
2022-09-22T11:57:41.397Z,21.30
2022-09-22T11:59:48.739Z,21.50
2022-09-22T12:01:52.398Z,21.80
2022-09-22T12:04:01.465Z,21.50
2022-09-22T12:06:05.894Z,21.60
2022-09-22T12:08:29.864Z,21.70
2022-09-22T12:10:38.730Z,21.60
2022-09-22T12:12:43.366Z,21.90
2022-09-22T12:14:54.154Z,22.60
2022-09-22T12:17:12.362Z,23.50
2022-09-22T12:19:41.864Z,24.10
2022-09-22T12:22:14.138Z,24.40
2022-09-22T12:24:16.554Z,24.70
2022-09-22T12:26:32.290Z,24.80
2022-09-22T12:28:39.785Z,25.00
2022-09-22T12:30:59.200Z,25.10
2022-09-22T12:33:01.220Z,25.00
2022-09-22T12:35:04.534Z,25.20
2022-09-22T12:37:28.433Z,25.60
2022-09-22T12:39:33.848Z,25.40
2022-09-22T12:41:50.034Z,25.50
2022-09-22T12:43:51.694Z,25.60
2022-09-22T12:45:56.143Z,25.90
2022-09-22T12:48:00.443Z,25.90
2022-09-22T12:50:31.256Z,26.00
2022-09-22T12:52:42.886Z,26.30
2022-09-22T12:54:46.740Z,26.50
2022-09-22T12:59:34.262Z,26.70
2022-09-22T13:01:35.995Z,26.10
2022-09-22T13:03:38.173Z,25.60
2022-09-22T13:05:46.393Z,25.60
2022-09-22T13:07:48.690Z,25.20
2022-09-22T13:10:25.441Z,24.90
2022-09-22T13:12:28.122Z,25.20
2022-09-22T13:14:57.586Z,25.50
2022-09-22T13:17:00.626Z,25.60
2022-09-22T13:19:03.299Z,25.20
2022-09-22T13:21:13.707Z,25.00
2022-09-22T13:23:15.645Z,25.30
2022-09-22T13:25:27.132Z,25.00
2022-09-22T13:27:32.458Z,25.60
2022-09-22T13:29:34.585Z,26.20
2022-09-22T13:31:48.745Z,26.20
2022-09-22T13:33:50.389Z,26.20
2022-09-22T13:36:23.675Z,26.20
2022-09-22T13:38:26.342Z,26.30
2022-09-22T13:40:31.624Z,26.40
2022-09-22T13:42:34.036Z,26.20
2022-09-22T13:44:40.372Z,26.10
2022-09-22T13:46:45.022Z,25.90
2022-09-22T13:48:47.384Z,26.00
2022-09-22T13:50:56.070Z,25.60
2022-09-22T13:52:57.732Z,25.90
2022-09-22T13:55:06.381Z,25.80
2022-09-22T13:57:19.522Z,25.50
2022-09-22T13:59:22.018Z,25.40
2022-09-22T14:01:26.118Z,25.10
2022-09-22T14:03:29.351Z,24.90
2022-09-22T14:05:34.251Z,24.50
2022-09-22T14:07:49.669Z,24.10
2022-09-22T14:09:59.390Z,24.00
2022-09-22T14:12:01.561Z,23.70
2022-09-22T14:14:04.336Z,23.70
2022-09-22T14:16:20.646Z,23.70
2022-09-22T14:18:28.853Z,23.60
2022-09-22T14:20:30.989Z,23.70
2022-09-22T14:22:40.163Z,23.80
2022-09-22T14:24:49.441Z,23.70
2022-09-22T14:27:03.045Z,23.60
2022-09-22T14:29:16.073Z,23.40
2022-09-22T14:31:33.613Z,23.00
2022-09-22T14:33:35.477Z,22.90
2022-09-22T14:35:37.349Z,23.00
2022-09-22T14:37:42.654Z,23.00
2022-09-22T14:39:45.188Z,22.90
2022-09-22T14:41:58.996Z,22.70
2022-09-22T14:44:01.069Z,22.40
2022-09-22T14:46:19.679Z,22.00
2022-09-22T14:48:32.319Z,21.50
2022-09-22T14:50:46.326Z,21.10
2022-09-22T14:53:02.566Z,20.60
2022-09-22T14:55:18.555Z,20.10
2022-09-22T14:57:21.902Z,19.70
2022-09-22T14:59:43.859Z,19.10
2022-09-22T15:02:07.588Z,18.80
2022-09-22T15:04:28.523Z,18.70
2022-09-22T15:06:37.313Z,18.60
2022-09-22T15:08:40.478Z,18.60
2022-09-22T15:10:54.929Z,18.60
2022-09-22T15:13:18.299Z,18.60
2022-09-22T15:15:24.049Z,18.50
2022-09-22T15:18:02.078Z,18.40
2022-09-22T15:20:05.646Z,18.20
2022-09-22T15:22:14.523Z,18.10
2022-09-22T15:24:27.323Z,18.00
2022-09-22T15:26:31.082Z,17.90
2022-09-22T15:28:37.894Z,17.90
2022-09-22T15:30:40.242Z,17.90
2022-09-22T15:32:48.436Z,18.00
2022-09-22T15:34:50.430Z,18.00
2022-09-22T15:36:54.162Z,18.00
2022-09-22T15:39:21.694Z,18.00
2022-09-22T15:41:23.409Z,18.10
2022-09-22T15:43:33.502Z,18.40
2022-09-22T15:45:36.304Z,18.60
2022-09-22T15:47:39.170Z,18.80
2022-09-22T15:49:42.609Z,18.90
2022-09-22T15:51:44.814Z,18.90
2022-09-22T15:53:46.574Z,18.70
2022-09-22T15:55:48.430Z,18.60
2022-09-22T15:57:54.761Z,18.70
2022-09-22T15:59:56.594Z,18.80
2022-09-22T16:01:59.449Z,18.80
2022-09-22T16:04:01.756Z,18.70
2022-09-22T16:06:08.364Z,18.50
2022-09-22T16:08:16.013Z,18.50
2022-09-22T16:10:23.634Z,18.30
2022-09-22T16:12:26.538Z,18.10
2022-09-22T16:14:29.176Z,18.00
2022-09-22T16:16:33.109Z,17.50
2022-09-22T16:18:41.843Z,17.10
2022-09-22T16:20:43.593Z,16.80
2022-09-22T16:22:45.571Z,16.30
2022-09-22T16:24:47.224Z,16.10
2022-09-22T16:26:49.490Z,15.80
2022-09-22T16:28:51.816Z,15.50
2022-09-22T16:30:53.645Z,15.20
2022-09-22T16:32:56.910Z,15.00
2022-09-22T16:34:58.732Z,14.80
2022-09-22T16:37:00.513Z,14.60
2022-09-22T16:39:03.781Z,14.50
2022-09-22T16:41:07.748Z,14.40
2022-09-22T16:43:10.922Z,14.20
2022-09-22T16:45:12.577Z,14.10
2022-09-22T16:47:14.224Z,13.90
2022-09-22T16:49:18.502Z,13.90
2022-09-22T16:51:20.826Z,13.80
2022-09-22T16:53:24.117Z,13.80
2022-09-22T16:55:25.733Z,13.70
2022-09-22T16:57:27.492Z,13.60
2022-09-22T16:59:30.666Z,13.50
2022-09-22T17:01:38.468Z,13.50
2022-09-22T17:03:43.039Z,13.30
2022-09-22T17:05:47.734Z,13.20
2022-09-22T17:07:51.092Z,13.10
2022-09-22T17:09:52.773Z,12.90
2022-09-22T17:11:55.193Z,12.80
2022-09-22T17:14:03.086Z,12.70
2022-09-22T17:16:18.519Z,12.60
2022-09-22T17:18:21.797Z,12.50
2022-09-22T17:20:23.921Z,12.40
2022-09-22T17:22:26.382Z,12.30
2022-09-22T17:24:29.328Z,12.20
2022-09-22T17:26:34.282Z,12.20
2022-09-22T17:28:36.198Z,12.10
2022-09-22T17:30:38.589Z,12.00
2022-09-22T17:32:40.460Z,12.00
2022-09-22T17:34:42.166Z,12.00
2022-09-22T17:36:44.740Z,11.80
2022-09-22T17:38:50.748Z,11.90
2022-09-22T17:41:07.250Z,11.80
2022-09-22T17:43:08.917Z,11.80
2022-09-22T17:45:11.009Z,11.70
2022-09-22T17:47:31.649Z,11.70
2022-09-22T17:49:52.664Z,11.70
2022-09-22T17:52:13.127Z,11.70
2022-09-22T17:54:45.825Z,11.70
2022-09-22T17:56:47.819Z,11.70
2022-09-22T17:58:49.434Z,11.60
2022-09-22T18:00:51.189Z,11.60
2022-09-22T18:02:54.206Z,11.50
2022-09-22T18:04:57.333Z,11.50
2022-09-22T18:07:00.210Z,11.40
2022-09-22T18:09:02.092Z,11.40
2022-09-22T18:11:03.847Z,11.40
2022-09-22T18:13:07.066Z,11.30
2022-09-22T18:15:12.808Z,11.30
2022-09-22T18:17:16.842Z,11.20
2022-09-22T18:19:18.551Z,11.10
2022-09-22T18:21:20.170Z,11.10
2022-09-22T18:23:23.776Z,11.10
2022-09-22T18:25:28.162Z,11.10
2022-09-22T18:27:30.605Z,11.10
2022-09-22T18:29:33.191Z,11.10
2022-09-22T18:31:34.834Z,11.00
2022-09-22T18:33:36.645Z,11.00
2022-09-22T18:35:39.358Z,11.00
2022-09-22T18:37:43.768Z,11.00
2022-09-22T18:39:45.963Z,11.10
2022-09-22T18:41:47.842Z,11.00
2022-09-22T18:43:49.956Z,11.00
2022-09-22T18:45:51.578Z,11.10
2022-09-22T18:47:53.597Z,11.10
2022-09-22T18:49:56.702Z,11.10
2022-09-22T18:51:59.806Z,11.10
2022-09-22T18:54:08.065Z,11.10
2022-09-22T18:56:10.993Z,11.10
2022-09-22T18:58:12.636Z,11.00
2022-09-22T19:00:15.673Z,11.00
2022-09-22T19:02:21.662Z,10.90
2022-09-22T19:04:24.695Z,10.90
2022-09-22T19:06:26.319Z,10.90
2022-09-22T19:08:29.420Z,10.90
2022-09-22T19:10:31.164Z,10.80
2022-09-22T19:12:36.959Z,10.80
2022-09-22T19:14:40.968Z,10.80
2022-09-22T19:16:42.838Z,10.80
2022-09-22T19:18:44.645Z,10.80
2022-09-22T19:20:51.112Z,10.80
2022-09-22T19:22:53.678Z,10.70
2022-09-22T19:24:55.348Z,10.70
2022-09-22T19:26:57.164Z,10.70
2022-09-22T19:28:59.446Z,10.70
2022-09-22T19:31:02.944Z,10.70
2022-09-22T19:33:05.705Z,10.70
2022-09-22T19:35:08.970Z,10.60
2022-09-22T19:37:10.611Z,10.50
2022-09-22T19:39:12.516Z,10.50
2022-09-22T19:41:14.273Z,10.50
2022-09-22T19:43:16.224Z,10.60
2022-09-22T19:45:18.992Z,10.50
2022-09-22T19:47:20.993Z,10.50
2022-09-22T19:49:25.011Z,10.60
2022-09-22T19:51:27.001Z,10.50
2022-09-22T19:53:29.666Z,10.50
2022-09-22T19:55:32.953Z,10.50
2022-09-22T19:57:41.209Z,10.50
2022-09-22T19:59:43.262Z,10.50
2022-09-22T20:01:45.759Z,10.40
2022-09-22T20:03:47.426Z,10.40
2022-09-22T20:05:49.170Z,10.40
2022-09-22T20:07:51.549Z,10.50
2022-09-22T20:09:56.209Z,10.50
2022-09-22T20:11:58.034Z,10.50
2022-09-22T20:14:18.710Z,10.50
2022-09-22T20:16:20.341Z,10.40
2022-09-22T20:18:22.649Z,10.40
2022-09-22T20:20:25.935Z,10.40
2022-09-22T20:22:29.696Z,10.30
2022-09-22T20:24:31.689Z,10.30
2022-09-22T20:26:34.481Z,10.30
2022-09-22T20:28:36.341Z,10.30
2022-09-22T20:30:38.370Z,10.20
2022-09-22T20:32:40.909Z,10.20
2022-09-22T20:34:42.566Z,10.20
2022-09-22T20:36:44.325Z,10.20
2022-09-22T20:38:46.267Z,10.20
2022-09-22T20:40:48.673Z,10.20
2022-09-22T20:42:53.134Z,10.20
2022-09-22T20:44:55.594Z,10.10
2022-09-22T20:46:57.597Z,10.10
2022-09-22T20:48:59.274Z,10.10
2022-09-22T20:51:02.801Z,10.10
2022-09-22T20:53:06.060Z,10.10
2022-09-22T20:55:10.823Z,10.10
2022-09-22T20:57:14.005Z,10.10
2022-09-22T20:59:16.678Z,10.10
2022-09-22T21:01:19.207Z,10.10
2022-09-22T21:03:21.213Z,10.10
2022-09-22T21:05:22.914Z,10.00
2022-09-22T21:07:25.534Z,10.00
2022-09-22T21:09:45.854Z,9.90
2022-09-22T21:11:47.710Z,9.90
2022-09-22T21:14:01.871Z,9.80
2022-09-22T21:16:04.787Z,9.80
2022-09-22T21:18:06.451Z,9.80
2022-09-22T21:20:08.649Z,9.80
2022-09-22T21:22:11.122Z,9.80
2022-09-22T21:24:12.757Z,9.80
2022-09-22T21:26:15.947Z,9.70
2022-09-22T21:28:17.599Z,9.70
2022-09-22T21:30:19.394Z,9.70
2022-09-22T21:32:21.278Z,9.70
2022-09-22T21:34:23.403Z,9.60
2022-09-22T21:36:26.005Z,9.60
2022-09-22T21:38:29.425Z,9.60
2022-09-22T21:40:31.625Z,9.60
2022-09-22T21:42:33.270Z,9.60
2022-09-22T21:44:34.926Z,9.50
2022-09-22T21:46:40.689Z,9.50
2022-09-22T21:48:43.057Z,9.50
2022-09-22T21:50:44.823Z,9.60
2022-09-22T21:52:46.497Z,9.50
2022-09-22T21:54:50.581Z,9.60
2022-09-22T21:56:53.305Z,9.60
2022-09-22T21:58:56.653Z,9.60
2022-09-22T22:00:58.604Z,9.60
2022-09-22T22:03:26.968Z,9.60
2022-09-22T22:05:30.218Z,9.50
2022-09-22T22:07:32.240Z,9.50
2022-09-22T22:09:34.023Z,9.50
2022-09-22T22:11:38.368Z,9.40
2022-09-22T22:13:42.261Z,9.40
2022-09-22T22:15:44.141Z,9.30
2022-09-22T22:17:46.005Z,9.40
2022-09-22T22:19:47.627Z,9.30
2022-09-22T22:21:51.030Z,9.30
2022-09-22T22:24:18.015Z,9.30
2022-09-22T22:26:25.134Z,9.30
2022-09-22T22:28:26.922Z,9.30
2022-09-22T22:30:30.218Z,9.30
2022-09-22T22:32:32.091Z,9.30
2022-09-22T22:34:33.834Z,9.20
2022-09-22T22:36:35.737Z,9.20
2022-09-22T22:38:39.186Z,9.20
2022-09-22T22:40:40.849Z,9.10
2022-09-22T22:42:42.971Z,9.20
2022-09-22T22:44:44.707Z,9.10
2022-09-22T22:46:46.662Z,9.30
2022-09-22T22:48:51.323Z,9.20
2022-09-22T22:50:54.422Z,9.30
2022-09-22T22:52:56.157Z,9.30
2022-09-22T22:54:57.886Z,9.30
2022-09-22T22:56:59.696Z,9.20
2022-09-22T22:59:01.356Z,9.20
2022-09-22T23:01:21.022Z,9.20
2022-09-22T23:03:22.820Z,9.10
2022-09-22T23:05:24.738Z,9.10
2022-09-22T23:07:27.633Z,9.10
2022-09-22T23:09:29.466Z,9.10
2022-09-22T23:11:35.579Z,9.10
2022-09-22T23:13:45.733Z,9.00
2022-09-22T23:15:48.115Z,8.90
2022-09-22T23:17:51.022Z,9.00
2022-09-22T23:19:53.405Z,9.00
2022-09-22T23:21:55.559Z,8.90
2022-09-22T23:23:57.670Z,8.90
2022-09-22T23:26:00.811Z,8.80
2022-09-22T23:28:04.710Z,8.70
2022-09-22T23:30:07.158Z,8.80
2022-09-22T23:32:08.835Z,8.70
2022-09-22T23:34:10.870Z,8.70
2022-09-22T23:36:18.289Z,8.70
2022-09-22T23:38:19.911Z,8.70
2022-09-22T23:40:22.209Z,8.70
2022-09-22T23:42:24.215Z,8.70
2022-09-22T23:44:26.063Z,8.60
2022-09-22T23:46:28.092Z,8.60
2022-09-22T23:48:30.947Z,8.70
2022-09-22T23:50:32.597Z,8.70
2022-09-22T23:52:34.670Z,8.70
2022-09-22T23:54:37.058Z,8.70
2022-09-22T23:56:38.688Z,8.60
2022-09-22T23:58:40.305Z,8.60
